createdAt,value
2023-04-04T00:02:09.489Z,99453.69
2023-04-04T00:04:35.990Z,99471.72
2023-04-04T00:07:02.528Z,99464.06
2023-04-04T00:09:29.019Z,99464.44
2023-04-04T00:11:55.525Z,99464.84
2023-04-04T00:14:22.388Z,99470.88
2023-04-04T00:16:48.872Z,99465.34
2023-04-04T00:19:18.217Z,99459.41
2023-04-04T00:21:46.005Z,99459.91
2023-04-04T00:24:12.531Z,99452.28
2023-04-04T00:26:39.051Z,99463.75
2023-04-04T00:29:05.530Z,99464.94
2023-04-04T00:31:32.115Z,99469.31
2023-04-04T00:33:58.603Z,99464.09
2023-04-04T00:36:25.229Z,99460.03
2023-04-04T00:38:51.817Z,99470.63
2023-04-04T00:41:18.305Z,99473.09
2023-04-04T00:43:44.945Z,99466.16
2023-04-04T00:46:14.782Z,99468.19
2023-04-04T00:48:41.945Z,99460.03
2023-04-04T00:51:08.606Z,99465.47
2023-04-04T00:53:35.088Z,99459.31
2023-04-04T00:56:01.806Z,99454.06
2023-04-04T00:58:28.271Z,99457.88
2023-04-04T01:00:55.047Z,99463.31
2023-04-04T01:03:21.848Z,99462.97
2023-04-04T01:05:48.383Z,99466.25
2023-04-04T01:08:18.353Z,99457.91
2023-04-04T01:10:44.836Z,99461.06
2023-04-04T01:13:11.444Z,99453.38
2023-04-04T01:15:37.938Z,99451.13
2023-04-04T01:18:04.455Z,99452.63
2023-04-04T01:20:31.363Z,99450.31
2023-04-04T01:22:57.928Z,99442.72
2023-04-04T01:25:34.639Z,99455.03
2023-04-04T01:28:01.139Z,99454.28
2023-04-04T01:30:29.164Z,99456.16
2023-04-04T01:33:25.948Z,99450.47
2023-04-04T01:36:13.922Z,99450.19
2023-04-04T01:38:59.212Z,99453.97
2023-04-04T01:41:26.108Z,99441.66
2023-04-04T01:43:52.698Z,99445.47
2023-04-04T01:46:19.380Z,99447.25
2023-04-04T01:48:46.594Z,99447.09
2023-04-04T01:51:13.209Z,99436.13
2023-04-04T01:53:39.790Z,99441.38
2023-04-04T01:56:06.525Z,99434.56
2023-04-04T01:58:33.295Z,99434.56
2023-04-04T02:00:59.810Z,99422.84
2023-04-04T02:03:26.985Z,99425.13
2023-04-04T02:05:54.318Z,99424.31
2023-04-04T02:08:21.063Z,99430.84
2023-04-04T02:10:47.533Z,99434.88
2023-04-04T02:13:14.035Z,99430.34
2023-04-04T02:15:40.547Z,99428.19
2023-04-04T02:18:07.152Z,99429.16
2023-04-04T02:20:33.860Z,99427.44
2023-04-04T02:23:00.345Z,99417.53
2023-04-04T02:25:26.906Z,99422.16
2023-04-04T02:27:53.446Z,99422.44
2023-04-04T02:30:19.913Z,99412.94
2023-04-04T02:32:47.329Z,99408.22
2023-04-04T02:35:13.843Z,99404.72
2023-04-04T02:37:40.578Z,99404.34
2023-04-04T02:40:07.891Z,99406.75
2023-04-04T02:42:34.376Z,99401.00
2023-04-04T02:45:01.135Z,99401.69
2023-04-04T02:47:27.904Z,99402.13
2023-04-04T02:49:54.377Z,99396.16
2023-04-04T02:52:21.635Z,99395.69
2023-04-04T02:54:48.091Z,99395.84
2023-04-04T02:57:14.582Z,99401.78
2023-04-04T02:59:41.042Z,99396.09
2023-04-04T03:02:07.608Z,99395.19
2023-04-04T03:04:34.154Z,99403.44
2023-04-04T03:07:00.630Z,99388.91
2023-04-04T03:09:27.663Z,99387.97
2023-04-04T03:11:54.156Z,99393.13
2023-04-04T03:14:20.675Z,99380.34
2023-04-04T03:16:49.429Z,99379.78
2023-04-04T03:19:16.222Z,99377.28
2023-04-04T03:21:42.978Z,99379.53
2023-04-04T03:24:09.444Z,99375.97
2023-04-04T03:26:35.921Z,99369.03
2023-04-04T03:29:04.305Z,99358.81
2023-04-04T03:31:30.832Z,99364.84
2023-04-04T03:33:57.539Z,99364.69
2023-04-04T03:36:24.015Z,99364.84
2023-04-04T03:38:50.725Z,99358.16
2023-04-04T03:41:17.225Z,99364.44
2023-04-04T03:43:45.038Z,99362.59
2023-04-04T03:46:11.575Z,99349.59
2023-04-04T03:48:38.129Z,99356.50
2023-04-04T03:51:04.723Z,99350.25
2023-04-04T03:53:31.393Z,99350.91
2023-04-04T03:55:57.923Z,99355.19
2023-04-04T03:58:24.455Z,99350.09
2023-04-04T04:00:51.165Z,99359.13
2023-04-04T04:03:17.767Z,99345.53
2023-04-04T04:05:44.864Z,99346.63
2023-04-04T04:08:11.664Z,99345.13
2023-04-04T04:10:38.316Z,99348.69
2023-04-04T04:13:05.058Z,99343.47
2023-04-04T04:15:31.772Z,99342.81
2023-04-04T04:17:58.322Z,99343.56
2023-04-04T04:20:24.850Z,99345.03
2023-04-04T04:22:53.888Z,99347.38
2023-04-04T04:25:20.853Z,99335.22
2023-04-04T04:27:47.368Z,99340.03
2023-04-04T04:30:13.916Z,99350.56
2023-04-04T04:32:40.830Z,99354.41
2023-04-04T04:35:08.178Z,99346.00
2023-04-04T04:37:34.955Z,99341.81
2023-04-04T04:40:01.929Z,99338.03
2023-04-04T04:42:29.364Z,99342.31
2023-04-04T04:44:56.061Z,99344.94
2023-04-04T04:47:22.983Z,99332.84
2023-04-04T04:49:49.749Z,99347.94
2023-04-04T04:52:16.367Z,99340.50
2023-04-04T04:54:43.804Z,99346.69
2023-04-04T04:57:10.555Z,99339.25
2023-04-04T04:59:37.158Z,99344.78
2023-04-04T05:02:03.925Z,99344.19
2023-04-04T05:04:30.576Z,99339.19
2023-04-04T05:06:57.293Z,99337.38
2023-04-04T05:09:23.872Z,99338.53
2023-04-04T05:11:50.596Z,99338.19
2023-04-04T05:14:17.067Z,99341.97
2023-04-04T05:16:43.859Z,99345.63
2023-04-04T05:19:10.609Z,99344.97
2023-04-04T05:21:37.562Z,99352.06
2023-04-04T05:24:04.101Z,99354.53
2023-04-04T05:26:31.127Z,99358.84
2023-04-04T05:28:59.382Z,99364.59
2023-04-04T05:31:25.955Z,99357.53
2023-04-04T05:33:54.038Z,99361.03
2023-04-04T05:36:20.576Z,99361.38
2023-04-04T05:38:47.096Z,99366.91
2023-04-04T05:41:13.588Z,99366.00
2023-04-04T05:43:40.045Z,99364.69
2023-04-04T05:46:06.526Z,99364.91
2023-04-04T05:48:33.014Z,99375.41
2023-04-04T05:50:59.476Z,99379.59
2023-04-04T05:53:25.966Z,99377.50
2023-04-04T05:55:53.312Z,99375.69
2023-04-04T05:58:19.823Z,99385.25
2023-04-04T06:00:46.680Z,99379.75
2023-04-04T06:03:13.220Z,99373.53
2023-04-04T06:05:39.770Z,99379.59
2023-04-04T06:08:06.465Z,99372.66
2023-04-04T06:10:32.982Z,99378.09
2023-04-04T06:12:59.469Z,99374.28
2023-04-04T06:15:25.969Z,99381.75
2023-04-04T06:17:52.503Z,99374.78
2023-04-04T06:20:21.301Z,99379.66
2023-04-04T06:22:47.824Z,99368.84
2023-04-04T06:25:14.594Z,99368.00
2023-04-04T06:27:41.101Z,99367.69
2023-04-04T06:30:10.309Z,99370.16
2023-04-04T06:32:38.675Z,99366.72
2023-04-04T06:35:05.945Z,99382.19
2023-04-04T06:37:32.440Z,99381.19
2023-04-04T06:39:58.894Z,99379.81
2023-04-04T06:42:25.860Z,99371.34
2023-04-04T06:44:52.334Z,99385.34
2023-04-04T06:47:18.837Z,99382.56
2023-04-04T06:49:45.404Z,99387.88
2023-04-04T06:52:12.203Z,99394.78
2023-04-04T06:54:38.831Z,99398.34
2023-04-04T06:57:05.374Z,99394.00
2023-04-04T06:59:31.945Z,99408.19
2023-04-04T07:01:58.552Z,99411.00
2023-04-04T07:04:26.288Z,99397.31
2023-04-04T07:06:52.834Z,99405.25
2023-04-04T07:09:28.715Z,99402.28
2023-04-04T07:11:56.219Z,99401.13
2023-04-04T07:14:25.781Z,99402.53
2023-04-04T07:16:52.831Z,99396.44
2023-04-04T07:19:19.367Z,99393.50
2023-04-04T07:21:45.861Z,99391.31
2023-04-04T07:24:12.405Z,99396.28
2023-04-04T07:26:39.624Z,99394.69
2023-04-04T07:29:06.116Z,99406.28
2023-04-04T07:31:32.661Z,99404.13
2023-04-04T07:33:59.206Z,99394.56
2023-04-04T07:36:25.694Z,99394.00
2023-04-04T07:38:52.376Z,99398.13
2023-04-04T07:41:18.838Z,99390.13
2023-04-04T07:43:45.299Z,99378.34
2023-04-04T07:46:12.208Z,99379.97
2023-04-04T07:48:38.765Z,99377.50
2023-04-04T07:51:05.463Z,99389.25
2023-04-04T07:53:32.632Z,99380.44
2023-04-04T07:55:59.148Z,99380.69
2023-04-04T07:58:25.677Z,99371.59
2023-04-04T08:00:52.143Z,99383.63
2023-04-04T08:03:19.916Z,99353.63
2023-04-04T08:05:46.758Z,99344.31
2023-04-04T08:08:13.782Z,99354.16
2023-04-04T08:10:40.554Z,99365.06
2023-04-04T08:13:08.924Z,99363.13
2023-04-04T08:15:35.504Z,99354.00
2023-04-04T08:18:02.667Z,99356.06
2023-04-04T08:20:29.250Z,99347.97
2023-04-04T08:22:56.294Z,99359.88
2023-04-04T08:25:22.932Z,99346.22
2023-04-04T08:27:49.446Z,99357.72
2023-04-04T08:30:15.944Z,99354.59
2023-04-04T08:32:44.169Z,99351.78
2023-04-04T08:35:11.699Z,99344.41
2023-04-04T08:37:38.698Z,99343.47
2023-04-04T08:40:05.675Z,99345.81
2023-04-04T08:42:33.129Z,99354.59
2023-04-04T08:45:00.647Z,99353.91
2023-04-04T08:47:27.792Z,99346.19
2023-04-04T08:49:54.366Z,99341.56
2023-04-04T08:52:21.617Z,99346.63
2023-04-04T08:54:48.099Z,99357.53
2023-04-04T08:57:14.590Z,99360.22
2023-04-04T08:59:41.216Z,99355.94
2023-04-04T09:02:11.068Z,99342.63
2023-04-04T09:04:37.934Z,99346.28
2023-04-04T09:07:05.166Z,99354.69
2023-04-04T09:09:32.302Z,99349.63
2023-04-04T09:12:01.225Z,99347.94
2023-04-04T09:14:27.834Z,99346.38
2023-04-04T09:16:54.730Z,99344.66
2023-04-04T09:19:21.461Z,99350.63
2023-04-04T09:21:48.547Z,99344.28
2023-04-04T09:24:15.991Z,99348.25
2023-04-04T09:26:49.550Z,99335.00
2023-04-04T09:29:21.248Z,99345.28
2023-04-04T09:31:49.438Z,99344.97
2023-04-04T09:34:17.388Z,99352.03
2023-04-04T09:36:44.753Z,99341.34
2023-04-04T09:39:11.631Z,99349.97
2023-04-04T09:41:39.556Z,99342.81
2023-04-04T09:44:07.320Z,99341.75
2023-04-04T09:46:37.128Z,99334.59
2023-04-04T09:49:04.679Z,99338.56
2023-04-04T09:51:35.903Z,99335.53
2023-04-04T09:54:02.716Z,99332.03
2023-04-04T09:56:29.188Z,99363.56
2023-04-04T09:59:03.031Z,99349.31
2023-04-04T10:01:30.847Z,99338.34
2023-04-04T10:03:57.449Z,99341.94
2023-04-04T10:06:24.023Z,99348.06
2023-04-04T10:08:51.124Z,99308.72
2023-04-04T10:11:28.679Z,99305.13
2023-04-04T10:13:55.663Z,99329.81
2023-04-04T10:16:22.494Z,99322.03
2023-04-04T10:18:49.005Z,99313.03
2023-04-04T10:21:16.256Z,99312.84
2023-04-04T10:23:43.170Z,99322.38
2023-04-04T10:26:10.016Z,99298.78
2023-04-04T10:28:36.926Z,99296.09
2023-04-04T10:31:21.322Z,99317.03
2023-04-04T10:33:59.862Z,99311.72
2023-04-04T10:36:29.885Z,99299.75
2023-04-04T10:39:06.329Z,99306.31
2023-04-04T10:41:32.817Z,99303.81
2023-04-04T10:44:01.059Z,99295.66
2023-04-04T10:46:30.943Z,99315.28
2023-04-04T10:48:58.618Z,99281.75
2023-04-04T10:51:26.350Z,99286.00
2023-04-04T10:53:53.010Z,99303.91
2023-04-04T10:56:19.472Z,99281.56
2023-04-04T10:58:45.972Z,99291.06
2023-04-04T11:01:12.779Z,99274.81
2023-04-04T11:04:18.819Z,99279.50
2023-04-04T11:07:11.652Z,99275.50
2023-04-04T11:09:54.854Z,99251.94
2023-04-04T11:12:31.507Z,99258.91
2023-04-04T11:15:11.245Z,99253.91
2023-04-04T11:17:52.080Z,99242.88
2023-04-04T11:20:23.735Z,99247.31
2023-04-04T11:22:51.493Z,99248.22
2023-04-04T11:25:31.862Z,99245.63
2023-04-04T11:27:58.484Z,99255.66
2023-04-04T11:30:26.338Z,99224.59
2023-04-04T11:33:04.033Z,99217.63
2023-04-04T11:35:33.592Z,99216.81
2023-04-04T11:38:03.652Z,99216.88
2023-04-04T11:40:41.212Z,99199.38
2023-04-04T11:43:11.161Z,99216.28
2023-04-04T11:45:39.075Z,99200.91
2023-04-04T11:48:06.694Z,99183.69
2023-04-04T11:50:38.387Z,99203.88
2023-04-04T11:53:06.594Z,99198.41
2023-04-04T11:55:33.299Z,99199.34
2023-04-04T11:58:26.207Z,99217.59
2023-04-04T12:00:52.963Z,99178.66
2023-04-04T12:03:19.685Z,99195.19
2023-04-04T12:05:46.546Z,99171.69
2023-04-04T12:08:13.273Z,99181.56
2023-04-04T12:10:40.446Z,99165.38
2023-04-04T12:13:08.362Z,99165.56
2023-04-04T12:15:35.934Z,99180.97
2023-04-04T12:18:09.302Z,99178.38
2023-04-04T12:20:39.752Z,99151.22
2023-04-04T12:23:06.246Z,99162.19
2023-04-04T12:25:34.137Z,99156.97
2023-04-04T12:28:01.808Z,99147.78
2023-04-04T12:30:28.298Z,99155.69
2023-04-04T12:32:54.768Z,99164.97
2023-04-04T12:35:21.264Z,99149.31
2023-04-04T12:38:03.735Z,99141.63
2023-04-04T12:40:32.309Z,99150.75
2023-04-04T12:43:00.001Z,99163.16
2023-04-04T12:45:26.933Z,99154.13
2023-04-04T12:47:54.438Z,99143.06
2023-04-04T12:50:28.208Z,99192.75
2023-04-04T12:53:00.298Z,99160.66
2023-04-04T12:55:34.906Z,99159.06
2023-04-04T12:58:02.601Z,99144.81
2023-04-04T13:00:29.566Z,99146.97
2023-04-04T13:02:56.298Z,99149.69
2023-04-04T13:05:23.251Z,99118.47
2023-04-04T13:07:49.828Z,99120.88
2023-04-04T13:10:17.406Z,99116.75
2023-04-04T13:13:00.408Z,99100.38
2023-04-04T13:15:49.178Z,99122.34
2023-04-04T13:18:25.446Z,99099.63
2023-04-04T13:20:55.439Z,99113.47
2023-04-04T13:23:22.002Z,99114.41
2023-04-04T13:25:48.535Z,99114.53
2023-04-04T13:28:15.650Z,99091.31
2023-04-04T13:30:46.882Z,99112.22
2023-04-04T13:33:13.462Z,99078.97
2023-04-04T13:35:40.107Z,99062.31
2023-04-04T13:38:06.906Z,99085.16
2023-04-04T13:40:33.410Z,99088.28
2023-04-04T13:42:59.876Z,99087.09
2023-04-04T13:45:26.372Z,99099.34
2023-04-04T13:47:52.928Z,99086.81
2023-04-04T13:50:19.481Z,99065.81
2023-04-04T13:52:45.954Z,99072.09
2023-04-04T13:55:13.599Z,99061.16
2023-04-04T13:57:40.079Z,99037.44
2023-04-04T14:00:07.018Z,99048.53
2023-04-04T14:02:33.787Z,99057.91
2023-04-04T14:05:00.323Z,99052.41
2023-04-04T14:07:26.813Z,99051.38
2023-04-04T14:09:53.306Z,99044.63
2023-04-04T14:12:19.785Z,99065.31
2023-04-04T14:14:46.303Z,99039.59
2023-04-04T14:17:12.788Z,99046.06
2023-04-04T14:19:39.640Z,99053.91
2023-04-04T14:22:06.380Z,99048.94
2023-04-04T14:24:32.909Z,99051.72
2023-04-04T14:26:59.512Z,99051.06
2023-04-04T14:29:26.538Z,99056.41
2023-04-04T14:31:53.128Z,99049.31
2023-04-04T14:34:19.617Z,99058.78
2023-04-04T14:36:46.113Z,99068.53
2023-04-04T14:39:12.836Z,99063.31
2023-04-04T14:41:39.316Z,99056.56
2023-04-04T14:44:06.489Z,99068.47
2023-04-04T14:46:34.080Z,99060.78
2023-04-04T14:49:00.794Z,99061.28
2023-04-04T14:51:27.644Z,99052.75
2023-04-04T14:53:54.118Z,99041.75
2023-04-04T14:56:22.762Z,99048.25
2023-04-04T14:58:50.710Z,99047.16
2023-04-04T15:01:17.386Z,99030.31
2023-04-04T15:03:43.915Z,99024.25
2023-04-04T15:06:10.463Z,99031.28
2023-04-04T15:08:37.000Z,99037.91
2023-04-04T15:11:03.539Z,99027.25
2023-04-04T15:13:30.009Z,99037.19
2023-04-04T15:15:56.556Z,99044.16
2023-04-04T15:18:23.045Z,99038.06
2023-04-04T15:20:49.570Z,99043.69
2023-04-04T15:23:16.312Z,99055.81
2023-04-04T15:25:42.933Z,99047.78
2023-04-04T15:28:09.423Z,99036.28
2023-04-04T15:30:36.187Z,99044.94
2023-04-04T15:33:02.736Z,99039.91
2023-04-04T15:35:29.265Z,99036.59
2023-04-04T15:37:55.794Z,99049.22
2023-04-04T15:40:22.351Z,99026.50
2023-04-04T15:42:48.860Z,99012.69
2023-04-04T15:45:15.624Z,99008.69
2023-04-04T15:47:45.197Z,99008.84
2023-04-04T15:50:12.301Z,99010.22
2023-04-04T15:52:38.772Z,99016.19
2023-04-04T15:55:07.822Z,99028.25
2023-04-04T15:57:34.289Z,99027.44
2023-04-04T16:00:00.786Z,99028.53
2023-04-04T16:02:27.346Z,99016.91
2023-04-04T16:04:53.881Z,99020.91
2023-04-04T16:07:20.369Z,99014.59
2023-04-04T16:09:46.918Z,99025.00
2023-04-04T16:12:13.404Z,99028.56
2023-04-04T16:14:39.871Z,99024.31
2023-04-04T16:17:06.351Z,99013.94
2023-04-04T16:19:34.154Z,99020.28
2023-04-04T16:22:00.748Z,99021.72
2023-04-04T16:24:27.705Z,99025.59
2023-04-04T16:26:54.188Z,99012.97
2023-04-04T16:29:21.293Z,99018.03
2023-04-04T16:31:47.960Z,99010.09
2023-04-04T16:34:14.629Z,99003.53
2023-04-04T16:36:41.299Z,99019.25
2023-04-04T16:39:07.833Z,99010.50
2023-04-04T16:41:34.535Z,98993.88
2023-04-04T16:44:01.098Z,98988.88
2023-04-04T16:46:27.707Z,99000.22
2023-04-04T16:48:54.255Z,99004.06
2023-04-04T16:51:20.735Z,99004.28
2023-04-04T16:53:47.216Z,99003.47
2023-04-04T16:56:13.706Z,98994.19
2023-04-04T16:58:40.568Z,98994.59
2023-04-04T17:01:07.980Z,98998.28
2023-04-04T17:03:34.782Z,98996.22
2023-04-04T17:06:01.641Z,98997.84
2023-04-04T17:08:28.132Z,98999.47
2023-04-04T17:10:54.611Z,98992.34
2023-04-04T17:13:21.114Z,98990.53
2023-04-04T17:15:47.622Z,98990.69
2023-04-04T17:18:14.160Z,98992.72
2023-04-04T17:20:42.644Z,98989.69
2023-04-04T17:23:09.798Z,99001.66
2023-04-04T17:25:36.599Z,99004.56
2023-04-04T17:28:04.386Z,98988.91
2023-04-04T17:30:31.210Z,99000.69
2023-04-04T17:32:57.769Z,99002.25
2023-04-04T17:35:24.632Z,98989.75
2023-04-04T17:37:51.726Z,98997.06
2023-04-04T17:40:19.414Z,99006.78
2023-04-04T17:42:45.983Z,99009.47
2023-04-04T17:45:12.484Z,99007.59
2023-04-04T17:47:39.360Z,99000.84
2023-04-04T17:50:06.162Z,99004.50
2023-04-04T17:52:33.195Z,99016.09
2023-04-04T17:54:59.662Z,99014.88
2023-04-04T17:57:26.722Z,99009.78
2023-04-04T17:59:53.685Z,99014.03
2023-04-04T18:02:20.593Z,99013.28
2023-04-04T18:04:47.478Z,99013.66
2023-04-04T18:07:14.349Z,99018.13
2023-04-04T18:09:41.775Z,99019.69
2023-04-04T18:12:08.583Z,99016.06
2023-04-04T18:14:35.075Z,99031.97
2023-04-04T18:17:01.551Z,99033.19
2023-04-04T18:19:29.182Z,99036.72
2023-04-04T18:21:59.881Z,99032.00
2023-04-04T18:24:27.968Z,99044.44
2023-04-04T18:26:54.661Z,99037.56
2023-04-04T18:29:21.333Z,99040.03
2023-04-04T18:31:47.843Z,99035.84
2023-04-04T18:34:18.061Z,99028.00
2023-04-04T18:36:45.112Z,99034.97
2023-04-04T18:39:15.416Z,99040.25
2023-04-04T18:41:41.986Z,99055.06
2023-04-04T18:44:08.825Z,99052.94
2023-04-04T18:46:35.345Z,99052.06
2023-04-04T18:49:01.844Z,99062.09
2023-04-04T18:51:28.861Z,99056.06
2023-04-04T18:53:55.563Z,99055.03
2023-04-04T18:56:22.260Z,99075.19
2023-04-04T18:58:49.578Z,99065.69
2023-04-04T19:01:16.902Z,99057.75
2023-04-04T19:03:44.221Z,99055.41
2023-04-04T19:06:11.674Z,99064.56
2023-04-04T19:08:41.728Z,99068.69
2023-04-04T19:11:08.891Z,99049.31
2023-04-04T19:13:35.531Z,99064.88
2023-04-04T19:16:02.185Z,99063.53
2023-04-04T19:18:28.675Z,99068.44
2023-04-04T19:20:55.137Z,99062.19
2023-04-04T19:23:21.648Z,99061.66
2023-04-04T19:25:48.132Z,99057.06
2023-04-04T19:28:14.634Z,99051.56
2023-04-04T19:30:47.124Z,99051.56
2023-04-04T19:33:17.093Z,99055.75
2023-04-04T19:35:58.913Z,99043.72
2023-04-04T19:38:28.080Z,99047.41
2023-04-04T19:41:17.922Z,99049.09
2023-04-04T19:43:45.585Z,99053.06
2023-04-04T19:46:16.145Z,99054.75
2023-04-04T19:48:43.564Z,99046.25
2023-04-04T19:51:19.897Z,99048.09
2023-04-04T19:53:50.374Z,99057.72
2023-04-04T19:56:18.270Z,99062.97
2023-04-04T19:58:45.215Z,99053.16
2023-04-04T20:01:14.712Z,99030.69
2023-04-04T20:03:41.175Z,99058.31
2023-04-04T20:06:11.655Z,99039.91
2023-04-04T20:08:44.276Z,99041.91
2023-04-04T20:11:14.070Z,99036.22
2023-04-04T20:13:40.930Z,99038.19
2023-04-04T20:16:11.852Z,99032.63
2023-04-04T20:18:38.802Z,99044.00
2023-04-04T20:21:37.691Z,99031.38
2023-04-04T20:24:08.452Z,99029.28
2023-04-04T20:26:35.304Z,99021.50
2023-04-04T20:29:10.977Z,99036.84
2023-04-04T20:31:53.787Z,99019.91
2023-04-04T20:34:41.382Z,99015.53
2023-04-04T20:37:26.105Z,99022.09
2023-04-04T20:39:52.948Z,99019.28
2023-04-04T20:42:40.133Z,99047.13
2023-04-04T20:45:09.769Z,99050.44
2023-04-04T20:47:51.585Z,99049.66
2023-04-04T20:50:18.367Z,99043.16
2023-04-04T20:52:52.955Z,99040.22
2023-04-04T20:55:20.307Z,99049.50
2023-04-04T20:57:46.977Z,99054.19
2023-04-04T21:00:28.660Z,99044.88
2023-04-04T21:02:56.339Z,99036.19
2023-04-04T21:05:30.114Z,99031.25
2023-04-04T21:07:57.015Z,99030.69
2023-04-04T21:10:27.006Z,99050.13
2023-04-04T21:12:54.247Z,99049.91
2023-04-04T21:15:23.378Z,99047.22
2023-04-04T21:17:49.969Z,99041.19
2023-04-04T21:20:16.850Z,99033.78
2023-04-04T21:22:44.036Z,99035.44
2023-04-04T21:25:18.262Z,99034.34
2023-04-04T21:27:44.754Z,99042.28
2023-04-04T21:30:11.395Z,99040.63
2023-04-04T21:32:37.931Z,99028.06
2023-04-04T21:35:05.846Z,99029.97
2023-04-04T21:37:32.338Z,99035.16
2023-04-04T21:40:00.448Z,99031.91
2023-04-04T21:42:28.091Z,99025.59
2023-04-04T21:44:54.643Z,99032.41
2023-04-04T21:47:21.155Z,99020.38
2023-04-04T21:49:47.638Z,99022.84
2023-04-04T21:52:14.151Z,99016.28
2023-04-04T21:54:40.596Z,99012.47
2023-04-04T21:57:07.072Z,99019.03
2023-04-04T21:59:33.789Z,99006.72
2023-04-04T22:02:00.335Z,99007.81
2023-04-04T22:04:26.947Z,98997.44
2023-04-04T22:06:53.458Z,99005.91
2023-04-04T22:09:22.582Z,99002.63
2023-04-04T22:11:49.086Z,98996.09
2023-04-04T22:14:17.294Z,98998.53
2023-04-04T22:16:44.022Z,98997.44
2023-04-04T22:19:11.296Z,99000.16
2023-04-04T22:21:38.162Z,99008.34
2023-04-04T22:24:05.759Z,99002.88
2023-04-04T22:26:33.078Z,99008.91
2023-04-04T22:29:00.515Z,98992.81
2023-04-04T22:31:27.433Z,98994.44
2023-04-04T22:33:53.951Z,98994.16
2023-04-04T22:36:21.877Z,98996.88
2023-04-04T22:38:49.337Z,99005.59
2023-04-04T22:41:15.815Z,98996.28
2023-04-04T22:43:42.305Z,98996.81
2023-04-04T22:46:09.103Z,98994.97
2023-04-04T22:48:41.112Z,98995.78
2023-04-04T22:51:07.657Z,98993.28
2023-04-04T22:53:34.151Z,98987.03
2023-04-04T22:56:00.726Z,98979.69
2023-04-04T22:58:27.243Z,98981.56
2023-04-04T23:00:53.748Z,98987.28
2023-04-04T23:03:21.009Z,98985.59
2023-04-04T23:05:47.472Z,98973.31
2023-04-04T23:08:13.983Z,98987.44
2023-04-04T23:10:40.676Z,98989.69
2023-04-04T23:13:07.382Z,98977.38
2023-04-04T23:15:35.693Z,98977.69
2023-04-04T23:18:02.577Z,98974.97
2023-04-04T23:20:32.034Z,98968.19
2023-04-04T23:22:58.605Z,98974.41
2023-04-04T23:25:26.359Z,98983.44
2023-04-04T23:27:53.266Z,98967.53
2023-04-04T23:30:20.043Z,98977.63
2023-04-04T23:32:46.597Z,98978.19
2023-04-04T23:35:13.084Z,98967.03
2023-04-04T23:37:39.583Z,98962.13
2023-04-04T23:40:06.912Z,98959.13
2023-04-04T23:42:33.404Z,98961.22
2023-04-04T23:45:00.977Z,98938.63
2023-04-04T23:47:27.673Z,98937.59
2023-04-04T23:49:54.158Z,98930.22
2023-04-04T23:52:20.844Z,98940.06
2023-04-04T23:54:47.664Z,98937.31
2023-04-04T23:57:14.122Z,98924.22
2023-04-04T23:59:40.604Z,98923.41
